메인 페이지
METAR-TAF:

METAR-TAF

공항 :

아타튀르크 국제공항

이스탄불 이스탄불, 터키

위도: 40-58N, 경도: 028-49E, 고도: 48m

현재 날씨관측

예보는 31분 전, 14:20시(UTC)에 발표되었습니다.
북북동11kt
온도 21°C
습도 69%
기압 1022 hPa
시정 10km 이상
1500m 미만 상공 구름 및 적란운 없음

METAR: LTBA 221420Z 03011KT CAVOK 21/15 Q1022 NOSIG RMK RWY23 03011KT

시각: 17:51 (14:51 UTC)

예보

예보는 4 시간 11분 전, 10:40시(UTC)에 발표되었습니다.
예보 대상 시간: 22일 12시부터 23일 18시까지 (UTC)
북북동12kt
시정 10km 이상
고도 3200ft 상공 구름 많음
전환 중
22일 16시부터 22일 20시까지 (UTC)
시정 10km 이상
1500m 미만 상공 구름 및 적란운 없음
확률 30% :
일시적
23일 01시부터 23일 05시까지 (UTC)
시정: 4000m
박무
전환 중
23일 05시부터 23일 08시까지 (UTC)
고도 3200ft 상공 구름 많음

TAF: LTBA 221040Z 2212/2318 03012KT 9999 BKN032 BECMG 2216/2220 CAVOK PROB30 TEMPO 2301/2305 4000 BR BECMG 2305/2308 BKN032

4,000개 이상의 공항 관측 자료 및 예보 (METAR 및 TAF 보고).

지도상에서 검색 가능한 기상관측소가 노란 점과 빨간 점으로 표시되어 있습니다.

기상관측소 명을 보려면 표시 위로 마우스를 이동하세요.

날씨 관측과 예보를 보려면 클릭하세요.

지도 변경 : 확대하려면 엑스 표시가 있는 녹색 버튼, 축소하려면 빼기 표시가 있는 녹색 버튼, 다음 페이지의 지도를 보려면 녹색 화살표를 클릭하세요.


METAR-TAF: